Time;durP1;ratioP1;P1;durP2;ratioP2;P2;SDS_P1;SDS_P2;PMS_P1;PMS_P2;Temp;Humidity;BMP_temperature;BMP_pressure;BME280_temperature;BME280_humidity;BME280_pressure;Samples;Min_cycle;Max_cycle;Signal;HPM_P1;HPM_P2
2023/04/04 00:01:24;;;;;;;2.93;1.80;;;;;;;;;;5033406;28;20453;-88
2023/04/04 00:03:51;;;;;;;2.30;2.00;;;;;;;;;;5011415;28;20977;-88
2023/04/04 00:06:18;;;;;;;3.63;1.87;;;;;;;;;;5004703;28;20432;-88
2023/04/04 00:08:43;;;;;;;2.63;1.90;;;;;;;;;;5011404;28;20425;-88
2023/04/04 00:11:09;;;;;;;5.60;2.57;;;;;;;;;;5000917;28;20467;-88
2023/04/04 00:13:37;;;;;;;2.73;1.97;;;;;;;;;;5020598;28;20431;-86
2023/04/04 00:16:03;;;;;;;3.17;1.83;;;;;;;;;;5015273;28;20522;-86
2023/04/04 00:18:29;;;;;;;2.50;1.67;;;;;;;;;;4998057;28;20430;-85
2023/04/04 00:20:55;;;;;;;2.53;1.77;;;;;;;;;;5018260;28;20538;-88
2023/04/04 00:23:21;;;;;;;2.40;2.03;;;;;;;;;;4984847;28;20483;-89
2023/04/04 00:25:53;;;;;;;2.27;2.07;;;;;;;;;;5011476;28;20477;-88
2023/04/04 00:28:20;;;;;;;2.23;1.47;;;;;;;;;;4982667;28;20428;-88
2023/04/04 00:30:46;;;;;;;3.30;2.30;;;;;;;;;;5001844;28;21371;-87
2023/04/04 00:33:12;;;;;;;1.87;1.63;;;;;;;;;;5007450;28;20443;-88
2023/04/04 00:35:38;;;;;;;2.23;1.80;;;;;;;;;;5011883;28;20443;-87
2023/04/04 00:38:04;;;;;;;2.60;2.40;;;;;;;;;;5023135;28;20424;-87
2023/04/04 00:40:30;;;;;;;2.70;2.13;;;;;;;;;;5003823;28;20436;-87
2023/04/04 00:42:58;;;;;;;2.50;2.10;;;;;;;;;;5002135;28;20443;-88
2023/04/04 00:45:24;;;;;;;2.80;1.70;;;;;;;;;;5012446;28;20967;-87
2023/04/04 00:47:50;;;;;;;4.63;1.87;;;;;;;;;;5000012;28;20428;-87
2023/04/04 00:50:16;;;;;;;4.30;1.83;;;;;;;;;;5030336;28;20557;-87
2023/04/04 00:52:42;;;;;;;2.63;1.40;;;;;;;;;;5024949;28;20437;-87
2023/04/04 00:55:08;;;;;;;2.67;2.00;;;;;;;;;;5022053;28;20430;-85
2023/04/04 00:57:34;;;;;;;1.70;1.60;;;;;;;;;;5012639;28;20438;-86
2023/04/04 01:00:03;;;;;;;7.23;2.10;;;;;;;;;;5025492;28;20445;-87
2023/04/04 01:02:29;;;;;;;6.17;2.60;;;;;;;;;;5038515;28;20542;-86
2023/04/04 01:04:55;;;;;;;1.87;1.70;;;;;;;;;;5015635;28;20443;-86
2023/04/04 01:07:21;;;;;;;2.43;2.10;;;;;;;;;;5017518;28;20438;-86
2023/04/04 01:09:47;;;;;;;3.77;2.00;;;;;;;;;;5032983;28;20844;-87
2023/04/04 01:12:13;;;;;;;2.93;2.17;;;;;;;;;;5023499;28;20522;-88
2023/04/04 01:14:39;;;;;;;3.43;2.10;;;;;;;;;;5039571;28;20414;-88
2023/04/04 01:17:05;;;;;;;2.90;2.13;;;;;;;;;;5022546;28;20790;-86
2023/04/04 01:19:45;;;;;;;2.70;1.80;;;;;;;;;;5042439;28;20449;-88
2023/04/04 01:22:11;;;;;;;3.20;2.10;;;;;;;;;;5041761;28;20425;-88
2023/04/04 01:24:37;;;;;;;2.53;1.90;;;;;;;;;;5026776;28;20425;-88
2023/04/04 01:27:03;;;;;;;2.53;1.90;;;;;;;;;;5018958;28;20476;-87
2023/04/04 01:29:29;;;;;;;4.70;2.07;;;;;;;;;;5042051;28;20484;-89
2023/04/04 01:32:08;;;;;;;2.70;2.50;;;;;;;;;;5041110;28;20885;-88
2023/04/04 01:34:50;;;;;;;4.30;3.40;;;;;;;;;;5024011;28;20934;-88
2023/04/04 01:37:25;;;;;;;3.93;2.83;;;;;;;;;;5019417;28;20473;-85
2023/04/04 01:39:53;;;;;;;2.77;2.30;;;;;;;;;;5043848;28;20639;-86
2023/04/04 01:42:19;;;;;;;4.83;3.27;;;;;;;;;;5024656;28;20472;-88
2023/04/04 01:44:46;;;;;;;2.80;2.13;;;;;;;;;;5046155;28;20829;-88
2023/04/04 01:47:12;;;;;;;2.83;2.30;;;;;;;;;;5021062;28;20505;-88
2023/04/04 01:49:38;;;;;;;1.60;1.50;;;;;;;;;;5022774;28;20458;-88
2023/04/04 01:52:06;;;;;;;2.80;2.40;;;;;;;;;;5016712;28;20948;-89
2023/04/04 01:54:34;;;;;;;1.80;1.70;;;;;;;;;;5049993;28;20454;-86
2023/04/04 01:57:00;;;;;;;2.40;2.20;;;;;;;;;;5040774;28;20406;-85
2023/04/04 01:59:26;;;;;;;2.33;1.67;;;;;;;;;;5032377;28;20421;-86
2023/04/04 02:01:52;;;;;;;2.70;2.50;;;;;;;;;;5047303;28;20422;-86
2023/04/04 02:04:18;;;;;;;3.13;2.17;;;;;;;;;;5044442;28;20506;-86
2023/04/04 02:06:44;;;;;;;2.13;1.93;;;;;;;;;;5049959;28;20513;-87
2023/04/04 02:09:10;;;;;;;2.60;1.70;;;;;;;;;;5071773;28;20422;-87
2023/04/04 02:11:37;;;;;;;2.40;1.70;;;;;;;;;;5046164;28;20418;-87
2023/04/04 02:14:04;;;;;;;2.37;2.17;;;;;;;;;;5023981;28;20443;-86
2023/04/04 02:16:30;;;;;;;2.93;1.63;;;;;;;;;;5019731;28;20961;-86
2023/04/04 02:18:56;;;;;;;5.10;1.93;;;;;;;;;;5030821;28;20438;-86
2023/04/04 02:21:24;;;;;;;5.00;2.50;;;;;;;;;;5056360;28;20426;-87
2023/04/04 02:23:50;;;;;;;2.77;1.70;;;;;;;;;;5025391;28;20429;-87
2023/04/04 02:26:16;;;;;;;2.07;1.83;;;;;;;;;;5025522;28;20509;-86
2023/04/04 02:28:42;;;;;;;3.37;2.13;;;;;;;;;;5021995;28;20870;-86
2023/04/04 02:31:08;;;;;;;2.23;1.80;;;;;;;;;;4999665;28;20457;-87
2023/04/04 02:33:34;;;;;;;2.50;2.30;;;;;;;;;;4979813;28;20433;-88
2023/04/04 02:36:00;;;;;;;3.67;1.83;;;;;;;;;;4973273;28;21465;-89
2023/04/04 02:38:27;;;;;;;6.50;1.87;;;;;;;;;;4990932;28;20423;-89
2023/04/04 02:40:53;;;;;;;2.80;1.90;;;;;;;;;;5003706;28;20424;-86
2023/04/04 02:43:19;;;;;;;3.10;1.90;;;;;;;;;;4979567;28;20944;-87
2023/04/04 02:45:47;;;;;;;3.00;1.80;;;;;;;;;;5000052;28;20816;-86
2023/04/04 02:48:14;;;;;;;2.10;1.90;;;;;;;;;;4999355;28;20522;-85
2023/04/04 02:50:40;;;;;;;2.10;1.90;;;;;;;;;;4980601;28;20460;-87
2023/04/04 02:53:07;;;;;;;2.57;1.47;;;;;;;;;;4987791;28;20440;-88
2023/04/04 02:55:32;;;;;;;1.70;1.60;;;;;;;;;;4987205;28;20557;-87
2023/04/04 02:58:00;;;;;;;2.03;1.83;;;;;;;;;;5001330;28;20440;-86
2023/04/04 03:00:26;;;;;;;2.60;2.40;;;;;;;;;;5002829;28;20428;-87
2023/04/04 03:02:55;;;;;;;3.10;2.00;;;;;;;;;;5025027;28;20848;-86
2023/04/04 03:05:23;;;;;;;2.00;1.80;;;;;;;;;;5023253;28;20434;-87
2023/04/04 03:07:54;;;;;;;2.93;2.20;;;;;;;;;;5015313;28;20442;-85
2023/04/04 03:10:21;;;;;;;2.53;2.00;;;;;;;;;;5031694;28;20462;-86
2023/04/04 03:12:47;;;;;;;5.97;2.77;;;;;;;;;;5035702;28;20533;-87
2023/04/04 03:15:13;;;;;;;2.60;2.13;;;;;;;;;;5037834;28;20865;-87
2023/04/04 03:17:39;;;;;;;2.60;2.20;;;;;;;;;;5045686;28;20432;-86
2023/04/04 03:20:05;;;;;;;3.03;1.77;;;;;;;;;;5022672;28;20475;-87
2023/04/04 03:22:31;;;;;;;2.73;1.60;;;;;;;;;;5025488;28;20419;-87
2023/04/04 03:24:57;;;;;;;1.97;1.77;;;;;;;;;;5008168;28;20431;-86
2023/04/04 03:27:23;;;;;;;4.03;2.57;;;;;;;;;;5049216;28;20431;-87
2023/04/04 03:29:49;;;;;;;1.47;1.33;;;;;;;;;;5025181;28;20457;-87
2023/04/04 03:32:17;;;;;;;3.10;1.83;;;;;;;;;;5046947;28;20868;-87
2023/04/04 03:34:43;;;;;;;2.17;1.97;;;;;;;;;;5039332;28;20449;-87
2023/04/04 03:37:09;;;;;;;2.70;2.07;;;;;;;;;;5040866;28;20517;-86
2023/04/04 03:39:35;;;;;;;2.20;2.00;;;;;;;;;;5037527;28;20425;-86
2023/04/04 03:42:04;;;;;;;2.20;2.00;;;;;;;;;;5043395;28;20937;-87
2023/04/04 03:44:30;;;;;;;3.60;2.23;;;;;;;;;;4999010;28;20458;-87
2023/04/04 03:46:56;;;;;;;3.70;2.10;;;;;;;;;;4983596;28;20504;-87
2023/04/04 03:49:22;;;;;;;3.90;2.20;;;;;;;;;;4968760;28;20456;-87
2023/04/04 03:51:48;;;;;;;2.83;2.13;;;;;;;;;;4978291;28;20964;-87
2023/04/04 03:54:16;;;;;;;2.00;1.70;;;;;;;;;;4995875;28;20416;-87
2023/04/04 03:56:42;;;;;;;2.70;2.50;;;;;;;;;;4981007;28;20826;-87
2023/04/04 03:59:08;;;;;;;3.73;2.17;;;;;;;;;;4979327;28;20519;-87
2023/04/04 04:01:34;;;;;;;2.53;1.80;;;;;;;;;;4978039;28;20432;-87
2023/04/04 04:04:01;;;;;;;3.33;1.93;;;;;;;;;;4990917;28;20472;-87
2023/04/04 04:06:26;;;;;;;3.47;2.30;;;;;;;;;;4981221;28;20424;-87
2023/04/04 04:08:52;;;;;;;2.17;1.97;;;;;;;;;;4981195;28;20440;-87
2023/04/04 04:11:18;;;;;;;3.70;2.30;;;;;;;;;;4981525;28;20479;-87
2023/04/04 04:13:44;;;;;;;6.57;2.60;;;;;;;;;;4981144;28;20487;-87
2023/04/04 04:16:10;;;;;;;2.87;2.00;;;;;;;;;;5002761;28;20434;-87
2023/04/04 04:18:37;;;;;;;2.03;1.83;;;;;;;;;;5019446;28;20998;-87
2023/04/04 04:21:03;;;;;;;3.07;2.20;;;;;;;;;;5014177;28;20789;-87
2023/04/04 04:23:30;;;;;;;2.83;2.10;;;;;;;;;;5020958;28;20513;-87
2023/04/04 04:25:56;;;;;;;2.60;2.07;;;;;;;;;;5034021;28;20430;-87
2023/04/04 04:28:25;;;;;;;1.83;1.57;;;;;;;;;;5031148;28;20463;-87
2023/04/04 04:30:51;;;;;;;2.10;1.90;;;;;;;;;;5038493;28;20460;-86
2023/04/04 04:33:18;;;;;;;2.20;2.00;;;;;;;;;;5010760;28;20918;-87
2023/04/04 04:35:44;;;;;;;4.13;3.03;;;;;;;;;;5019910;28;20438;-87
2023/04/04 04:38:10;;;;;;;2.30;1.83;;;;;;;;;;5012177;28;20411;-91
2023/04/04 04:40:36;;;;;;;2.87;2.30;;;;;;;;;;5054102;28;20902;-90
2023/04/04 04:43:02;;;;;;;3.67;2.70;;;;;;;;;;5017782;28;20422;-91
2023/04/04 04:45:28;;;;;;;4.10;1.90;;;;;;;;;;5042295;28;20449;-92
2023/04/04 04:47:54;;;;;;;2.43;2.07;;;;;;;;;;5017588;28;20435;-90
2023/04/04 04:50:21;;;;;;;2.90;2.70;;;;;;;;;;5015983;28;20461;-88
2023/04/04 04:52:50;;;;;;;3.20;2.10;;;;;;;;;;5026641;28;20416;-88
2023/04/04 04:55:17;;;;;;;3.97;2.37;;;;;;;;;;5037145;28;20506;-92
2023/04/04 04:57:43;;;;;;;2.60;1.90;;;;;;;;;;5033945;28;20474;-91
2023/04/04 05:00:10;;;;;;;2.17;1.97;;;;;;;;;;5024788;28;20434;-87
2023/04/04 05:02:36;;;;;;;4.03;2.73;;;;;;;;;;5017365;28;20468;-87
2023/04/04 05:05:02;;;;;;;2.67;2.47;;;;;;;;;;5026708;28;20514;-87
2023/04/04 05:07:28;;;;;;;3.00;2.07;;;;;;;;;;5040863;28;20449;-88
2023/04/04 05:09:54;;;;;;;3.00;2.00;;;;;;;;;;5011317;28;20471;-87
2023/04/04 05:12:20;;;;;;;2.30;2.00;;;;;;;;;;5022067;28;20804;-88
2023/04/04 05:14:46;;;;;;;3.87;2.93;;;;;;;;;;5024032;28;20414;-88
2023/04/04 05:17:12;;;;;;;3.63;2.17;;;;;;;;;;5028132;28;20418;-87
2023/04/04 05:19:38;;;;;;;4.03;2.40;;;;;;;;;;5020159;28;20427;-87
2023/04/04 05:22:04;;;;;;;2.67;2.40;;;;;;;;;;5022555;28;20457;-87
2023/04/04 05:24:29;;;;;;;5.73;3.00;;;;;;;;;;5034092;28;20567;-87
2023/04/04 05:26:55;;;;;;;2.93;2.30;;;;;;;;;;5019787;28;20569;-86
2023/04/04 05:29:21;;;;;;;2.50;2.30;;;;;;;;;;5013050;28;20445;-86
2023/04/04 05:31:47;;;;;;;3.60;2.10;;;;;;;;;;5040658;28;20434;-86
2023/04/04 05:34:13;;;;;;;4.57;2.47;;;;;;;;;;5021635;28;20779;-86
2023/04/04 05:36:40;;;;;;;2.47;2.23;;;;;;;;;;5022370;28;20445;-86
2023/04/04 05:39:06;;;;;;;3.03;2.50;;;;;;;;;;5046020;28;20451;-86
2023/04/04 05:41:32;;;;;;;2.80;2.60;;;;;;;;;;5039468;28;20421;-87
2023/04/04 05:43:59;;;;;;;3.70;2.97;;;;;;;;;;5012120;28;20585;-88
2023/04/04 05:46:25;;;;;;;3.67;3.33;;;;;;;;;;5025281;28;20411;-87
2023/04/04 05:48:51;;;;;;;4.50;2.93;;;;;;;;;;5022481;28;21137;-88
2023/04/04 05:51:17;;;;;;;8.90;2.40;;;;;;;;;;5022718;28;20479;-89
2023/04/04 05:53:44;;;;;;;3.77;3.00;;;;;;;;;;5038560;28;20446;-88
2023/04/04 05:56:10;;;;;;;3.80;2.67;;;;;;;;;;5016208;28;20447;-88
2023/04/04 05:58:37;;;;;;;8.03;3.83;;;;;;;;;;5005646;28;20439;-87
2023/04/04 06:01:07;;;;;;;4.43;3.17;;;;;;;;;;5018045;28;20445;-87
2023/04/04 06:03:33;;;;;;;3.90;3.00;;;;;;;;;;5026019;28;20487;-88
2023/04/04 06:06:00;;;;;;;4.47;3.33;;;;;;;;;;5023902;28;20449;-87
2023/04/04 06:08:26;;;;;;;4.13;3.73;;;;;;;;;;5027370;28;20490;-87
2023/04/04 06:10:54;;;;;;;5.43;3.43;;;;;;;;;;5020946;28;20588;-90
2023/04/04 06:13:20;;;;;;;4.00;3.37;;;;;;;;;;5023579;28;20966;-88
2023/04/04 06:15:46;;;;;;;4.30;3.57;;;;;;;;;;5022792;28;20502;-87
2023/04/04 06:18:11;;;;;;;3.17;2.80;;;;;;;;;;5028528;28;20452;-88
2023/04/04 06:20:37;;;;;;;6.17;3.10;;;;;;;;;;5022971;28;20952;-86
2023/04/04 06:23:03;;;;;;;4.93;3.10;;;;;;;;;;5034873;28;20462;-86
2023/04/04 06:25:32;;;;;;;4.03;2.50;;;;;;;;;;5019992;28;20966;-84
2023/04/04 06:27:58;;;;;;;6.40;2.57;;;;;;;;;;5016585;28;20944;-86
2023/04/04 06:30:24;;;;;;;3.43;3.10;;;;;;;;;;5018993;28;20486;-85
2023/04/04 06:32:51;;;;;;;4.40;3.00;;;;;;;;;;5021091;28;20427;-84
2023/04/04 06:35:17;;;;;;;3.67;2.80;;;;;;;;;;5024483;28;20989;-84
2023/04/04 06:37:43;;;;;;;4.00;2.70;;;;;;;;;;5017727;28;21270;-84
2023/04/04 06:40:09;;;;;;;8.00;2.90;;;;;;;;;;5022385;28;20446;-87
2023/04/04 06:42:35;;;;;;;3.47;2.53;;;;;;;;;;5019790;28;21081;-87
2023/04/04 06:45:01;;;;;;;4.83;3.10;;;;;;;;;;5038497;28;20472;-86
2023/04/04 06:47:29;;;;;;;2.73;2.47;;;;;;;;;;5038576;28;20462;-87
2023/04/04 06:49:55;;;;;;;3.43;3.00;;;;;;;;;;5022848;28;20439;-87
2023/04/04 06:52:22;;;;;;;2.93;2.50;;;;;;;;;;5023220;28;20411;-87
2023/04/04 06:54:48;;;;;;;2.93;2.53;;;;;;;;;;5013963;28;20427;-88
2023/04/04 06:57:14;;;;;;;6.93;3.07;;;;;;;;;;5012145;28;20493;-87
2023/04/04 06:59:40;;;;;;;7.80;2.70;;;;;;;;;;5039032;28;20419;-89
2023/04/04 07:02:06;;;;;;;3.10;2.90;;;;;;;;;;5037867;28;20922;-90
2023/04/04 07:04:33;;;;;;;3.33;3.03;;;;;;;;;;5047408;28;20435;-90
2023/04/04 07:06:59;;;;;;;2.73;2.53;;;;;;;;;;5014097;28;20451;-89
2023/04/04 07:09:27;;;;;;;3.20;2.47;;;;;;;;;;5010552;28;20442;-88
2023/04/04 07:11:53;;;;;;;2.97;2.67;;;;;;;;;;5020115;28;20450;-89
2023/04/04 07:14:23;;;;;;;4.63;2.20;;;;;;;;;;5025911;28;20443;-90
2023/04/04 07:16:49;;;;;;;3.07;2.40;;;;;;;;;;5024823;28;20426;-92
2023/04/04 07:19:16;;;;;;;4.47;2.67;;;;;;;;;;5026831;28;20442;-92
2023/04/04 07:21:42;;;;;;;3.97;3.00;;;;;;;;;;5023281;28;20446;-90
2023/04/04 07:24:08;;;;;;;2.87;2.10;;;;;;;;;;5041902;28;20427;-91
2023/04/04 07:26:34;;;;;;;4.53;2.67;;;;;;;;;;5043438;28;20521;-87
2023/04/04 07:29:00;;;;;;;11.43;3.03;;;;;;;;;;5020611;28;20427;-87
2023/04/04 07:31:27;;;;;;;4.10;2.57;;;;;;;;;;5011946;28;20442;-88
2023/04/04 07:33:53;;;;;;;3.00;2.70;;;;;;;;;;5021274;28;20513;-89
2023/04/04 07:36:19;;;;;;;3.30;2.23;;;;;;;;;;5010800;28;20953;-88
2023/04/04 07:38:45;;;;;;;3.10;2.50;;;;;;;;;;5019758;28;20499;-88
2023/04/04 07:41:11;;;;;;;2.93;2.50;;;;;;;;;;5049972;28;20419;-88
2023/04/04 07:43:38;;;;;;;3.30;1.93;;;;;;;;;;5025317;28;20423;-87
2023/04/04 07:46:04;;;;;;;3.10;1.80;;;;;;;;;;5017429;28;20466;-89
2023/04/04 07:48:32;;;;;;;8.40;4.00;;;;;;;;;;5011574;28;21066;-88
2023/04/04 07:50:59;;;;;;;2.87;2.67;;;;;;;;;;5027138;28;20469;-88
2023/04/04 07:53:25;;;;;;;2.53;2.20;;;;;;;;;;5022701;28;20431;-88
2023/04/04 07:55:51;;;;;;;6.70;2.23;;;;;;;;;;5042291;28;20418;-88
2023/04/04 07:58:17;;;;;;;3.13;2.53;;;;;;;;;;5022014;28;20434;-88
2023/04/04 08:00:43;;;;;;;3.07;2.20;;;;;;;;;;5025421;28;20476;-89
2023/04/04 08:03:09;;;;;;;3.97;3.20;;;;;;;;;;5034992;28;20434;-88
2023/04/04 08:05:35;;;;;;;2.77;2.23;;;;;;;;;;5018659;28;20419;-87
2023/04/04 08:08:01;;;;;;;2.87;2.60;;;;;;;;;;5020282;28;20431;-88
2023/04/04 08:10:27;;;;;;;9.73;3.07;;;;;;;;;;5042079;28;20473;-88
2023/04/04 08:12:53;;;;;;;6.83;2.50;;;;;;;;;;5037159;28;20418;-88
2023/04/04 08:15:19;;;;;;;2.67;2.30;;;;;;;;;;5011116;28;20473;-88
2023/04/04 08:17:45;;;;;;;2.30;2.10;;;;;;;;;;5015583;28;21237;-87
2023/04/04 08:20:11;;;;;;;3.30;2.50;;;;;;;;;;5004692;28;20419;-88
2023/04/04 08:22:38;;;;;;;3.20;2.53;;;;;;;;;;5021923;28;20450;-89
2023/04/04 08:25:04;;;;;;;3.57;2.40;;;;;;;;;;5021142;28;20427;-91
2023/04/04 08:27:31;;;;;;;2.20;2.00;;;;;;;;;;5009014;28;20433;-90
2023/04/04 08:29:57;;;;;;;6.13;2.20;;;;;;;;;;5037533;28;20450;-90
2023/04/04 08:32:23;;;;;;;3.73;2.53;;;;;;;;;;5036125;28;20526;-89
2023/04/04 08:34:50;;;;;;;6.00;2.40;;;;;;;;;;5017010;28;20964;-90
2023/04/04 08:37:17;;;;;;;2.83;2.50;;;;;;;;;;5020126;28;20796;-90
2023/04/04 08:39:43;;;;;;;2.87;2.20;;;;;;;;;;5019479;28;20433;-90
2023/04/04 08:42:09;;;;;;;3.60;2.17;;;;;;;;;;5019449;28;20434;-90
2023/04/04 08:44:35;;;;;;;3.60;2.30;;;;;;;;;;5012660;28;20429;-91
2023/04/04 08:47:04;;;;;;;2.97;2.13;;;;;;;;;;4988276;28;20440;-91
2023/04/04 08:49:31;;;;;;;4.93;3.00;;;;;;;;;;4972171;28;20464;-90
2023/04/04 08:51:58;;;;;;;4.63;4.20;;;;;;;;;;5003650;28;20427;-91
2023/04/04 08:54:25;;;;;;;5.43;2.47;;;;;;;;;;4996389;28;20512;-90
2023/04/04 08:56:51;;;;;;;2.67;2.13;;;;;;;;;;4997580;28;21039;-91
2023/04/04 08:59:17;;;;;;;5.10;2.30;;;;;;;;;;5007583;28;20538;-91
2023/04/04 09:01:44;;;;;;;3.93;2.97;;;;;;;;;;4982071;28;20559;-89
2023/04/04 09:04:10;;;;;;;2.73;2.33;;;;;;;;;;5000003;28;20449;-89
2023/04/04 09:06:36;;;;;;;7.83;2.93;;;;;;;;;;4992999;28;20460;-91
2023/04/04 09:09:02;;;;;;;3.63;2.20;;;;;;;;;;4979844;28;20428;-90
2023/04/04 09:11:32;;;;;;;4.07;2.73;;;;;;;;;;4991675;28;20882;-89
2023/04/04 09:13:58;;;;;;;3.80;2.93;;;;;;;;;;4985266;28;20430;-89
2023/04/04 09:16:24;;;;;;;2.60;2.40;;;;;;;;;;4980418;28;20783;-89
2023/04/04 09:18:51;;;;;;;5.03;2.80;;;;;;;;;;5007069;28;20486;-89
2023/04/04 09:21:17;;;;;;;2.73;1.57;;;;;;;;;;5036139;28;20430;-87
2023/04/04 09:23:43;;;;;;;3.87;2.97;;;;;;;;;;5017259;28;20445;-91
2023/04/04 09:26:11;;;;;;;3.77;3.10;;;;;;;;;;5017757;28;20443;-89
2023/04/04 09:28:37;;;;;;;3.63;2.57;;;;;;;;;;5015540;28;20503;-89
2023/04/04 09:31:04;;;;;;;2.67;2.47;;;;;;;;;;5016556;28;20462;-89
2023/04/04 09:33:30;;;;;;;3.43;2.90;;;;;;;;;;5011256;28;20927;-90
2023/04/04 09:35:57;;;;;;;4.10;2.70;;;;;;;;;;5015447;28;20454;-90
2023/04/04 09:38:23;;;;;;;4.90;2.77;;;;;;;;;;5033126;28;20407;-91
2023/04/04 09:40:50;;;;;;;6.03;2.50;;;;;;;;;;5043485;28;20430;-91
2023/04/04 09:43:16;;;;;;;2.40;2.17;;;;;;;;;;5015976;28;20556;-90
2023/04/04 09:45:44;;;;;;;5.33;2.13;;;;;;;;;;5021189;28;20449;-91
2023/04/04 09:48:10;;;;;;;2.90;2.50;;;;;;;;;;5043898;28;20972;-91
2023/04/04 09:50:38;;;;;;;2.37;2.17;;;;;;;;;;5044528;28;20462;-91
2023/04/04 09:53:04;;;;;;;4.10;2.10;;;;;;;;;;5023038;28;20461;-91
2023/04/04 09:55:31;;;;;;;3.00;2.57;;;;;;;;;;5034447;28;20423;-91
2023/04/04 09:57:57;;;;;;;4.07;2.57;;;;;;;;;;5021198;28;20445;-90
2023/04/04 10:00:24;;;;;;;5.80;2.13;;;;;;;;;;5040238;28;20454;-90
2023/04/04 10:02:51;;;;;;;4.20;2.33;;;;;;;;;;5022000;28;21279;-92
2023/04/04 10:05:18;;;;;;;4.27;3.53;;;;;;;;;;5058266;28;20468;-92
2023/04/04 10:07:46;;;;;;;5.50;2.03;;;;;;;;;;5050232;28;20418;-89
2023/04/04 10:10:12;;;;;;;3.20;1.80;;;;;;;;;;5019837;28;20550;-91
2023/04/04 10:12:38;;;;;;;2.57;2.37;;;;;;;;;;5036012;28;20490;-91
2023/04/04 10:15:04;;;;;;;2.93;2.63;;;;;;;;;;5033542;28;20522;-91
2023/04/04 10:17:31;;;;;;;5.47;2.57;;;;;;;;;;5019567;28;20922;-90
2023/04/04 10:19:59;;;;;;;4.23;2.23;;;;;;;;;;5019574;28;20505;-92
2023/04/04 10:22:25;;;;;;;3.50;2.47;;;;;;;;;;5044694;28;20427;-90
2023/04/04 10:24:52;;;;;;;3.50;3.20;;;;;;;;;;5021617;28;20520;-90
2023/04/04 10:27:18;;;;;;;2.93;2.23;;;;;;;;;;5042184;28;20437;-91
2023/04/04 10:29:46;;;;;;;4.70;2.67;;;;;;;;;;5050637;28;21258;-92
2023/04/04 10:32:13;;;;;;;3.83;2.70;;;;;;;;;;5017403;28;20407;-89
2023/04/04 10:34:45;;;;;;;5.00;2.40;;;;;;;;;;5025944;28;20449;-93
2023/04/04 10:37:27;;;;;;;3.23;2.93;;;;;;;;;;5026303;28;21023;-92
2023/04/04 10:39:55;;;;;;;2.73;2.40;;;;;;;;;;5043163;28;20415;-90
2023/04/04 10:42:22;;;;;;;12.10;4.00;;;;;;;;;;5024726;28;20441;-90
2023/04/04 10:44:48;;;;;;;3.27;2.90;;;;;;;;;;5010254;28;20458;-92
2023/04/04 10:47:14;;;;;;;5.73;2.53;;;;;;;;;;5023140;28;20410;-90
2023/04/04 10:49:40;;;;;;;4.20;2.63;;;;;;;;;;5059109;28;20466;-92
2023/04/04 10:52:06;;;;;;;3.20;2.90;;;;;;;;;;5042097;28;20426;-90
2023/04/04 10:54:32;;;;;;;2.73;2.50;;;;;;;;;;5036941;28;20446;-91
2023/04/04 10:57:02;;;;;;;3.73;2.40;;;;;;;;;;5025107;28;20506;-91
2023/04/04 10:59:28;;;;;;;3.30;2.40;;;;;;;;;;5025902;28;20446;-87
2023/04/04 11:01:55;;;;;;;3.40;3.10;;;;;;;;;;5044074;28;20431;-91
2023/04/04 11:04:22;;;;;;;3.80;2.97;;;;;;;;;;5026680;28;20419;-90
2023/04/04 11:07:04;;;;;;;2.90;2.60;;;;;;;;;;5021758;28;20431;-91
2023/04/04 11:09:53;;;;;;;5.90;2.90;;;;;;;;;;5021701;28;20419;-91
2023/04/04 11:12:22;;;;;;;3.93;2.20;;;;;;;;;;5005009;28;20536;-90
2023/04/04 11:14:55;;;;;;;3.80;2.90;;;;;;;;;;5020641;28;20782;-91
2023/04/04 11:17:40;;;;;;;4.30;2.80;;;;;;;;;;5038505;28;20403;-91
2023/04/04 11:20:11;;;;;;;4.77;3.30;;;;;;;;;;5008496;28;20423;-92
2023/04/04 11:22:46;;;;;;;3.97;3.10;;;;;;;;;;5022157;28;20806;-90
2023/04/04 11:25:31;;;;;;;3.47;2.90;;;;;;;;;;5017781;28;20887;-90
2023/04/04 11:27:57;;;;;;;3.73;2.97;;;;;;;;;;5043463;28;20416;-90
2023/04/04 11:30:29;;;;;;;4.27;2.30;;;;;;;;;;5023532;28;20449;-89
2023/04/04 11:32:59;;;;;;;5.13;3.20;;;;;;;;;;5020183;28;20798;-90
2023/04/04 11:35:25;;;;;;;3.90;2.60;;;;;;;;;;5019759;28;20523;-89
2023/04/04 11:37:54;;;;;;;3.10;2.80;;;;;;;;;;5023546;28;20433;-89
2023/04/04 11:40:21;;;;;;;4.33;3.77;;;;;;;;;;5051523;28;20439;-90
2023/04/04 11:42:51;;;;;;;4.53;2.40;;;;;;;;;;5036117;28;20410;-90
2023/04/04 11:45:20;;;;;;;3.13;2.57;;;;;;;;;;5029782;28;20423;-91
2023/04/04 11:47:46;;;;;;;4.40;3.33;;;;;;;;;;5032890;28;20426;-91
2023/04/04 11:50:13;;;;;;;6.40;2.50;;;;;;;;;;5025178;28;20451;-91
2023/04/04 11:52:40;;;;;;;3.53;3.07;;;;;;;;;;5042418;28;20448;-90
2023/04/04 11:55:16;;;;;;;3.20;2.60;;;;;;;;;;5030098;28;20419;-91
2023/04/04 11:57:42;;;;;;;3.40;2.87;;;;;;;;;;5025835;28;20435;-90
2023/04/04 12:00:11;;;;;;;3.03;2.10;;;;;;;;;;5018091;28;20444;-91
2023/04/04 12:02:37;;;;;;;3.40;2.90;;;;;;;;;;5050734;28;20500;-90
2023/04/04 12:05:05;;;;;;;5.53;2.30;;;;;;;;;;5045550;28;20435;-91
2023/04/04 12:07:31;;;;;;;3.00;2.50;;;;;;;;;;5042348;28;20505;-91
2023/04/04 12:09:57;;;;;;;3.10;2.60;;;;;;;;;;5045119;28;20484;-91
2023/04/04 12:12:24;;;;;;;2.50;2.30;;;;;;;;;;5028794;28;20414;-91
2023/04/04 12:14:50;;;;;;;3.30;2.97;;;;;;;;;;5029214;28;20410;-90
2023/04/04 12:17:16;;;;;;;4.50;2.83;;;;;;;;;;5025692;28;20482;-91
2023/04/04 12:19:43;;;;;;;3.87;2.80;;;;;;;;;;5025569;28;20457;-91
2023/04/04 12:22:09;;;;;;;3.10;2.17;;;;;;;;;;5028988;28;20997;-89
2023/04/04 12:24:35;;;;;;;4.30;2.90;;;;;;;;;;5047842;28;20808;-92
2023/04/04 12:27:02;;;;;;;3.30;2.63;;;;;;;;;;5027220;28;21382;-89
2023/04/04 12:29:28;;;;;;;3.47;3.17;;;;;;;;;;5041622;28;20517;-92
2023/04/04 12:31:54;;;;;;;4.67;3.20;;;;;;;;;;5028581;28;20403;-91
2023/04/04 12:34:24;;;;;;;3.63;2.33;;;;;;;;;;5024416;28;20442;-92
2023/04/04 12:36:57;;;;;;;6.60;3.53;;;;;;;;;;5020051;28;20427;-91
2023/04/04 12:39:25;;;;;;;3.60;2.80;;;;;;;;;;5045320;28;20446;-92
2023/04/04 12:41:58;;;;;;;4.73;2.90;;;;;;;;;;5023684;28;20435;-90
2023/04/04 12:44:29;;;;;;;2.87;2.57;;;;;;;;;;5017171;28;20517;-91
2023/04/04 12:47:01;;;;;;;4.80;2.37;;;;;;;;;;5040744;28;20427;-91
2023/04/04 12:49:29;;;;;;;3.50;2.20;;;;;;;;;;5021538;28;20441;-90
2023/04/04 12:51:55;;;;;;;4.50;2.97;;;;;;;;;;5050164;28;20437;-91
2023/04/04 12:54:28;;;;;;;3.40;2.70;;;;;;;;;;5023292;28;20981;-90
2023/04/04 12:57:04;;;;;;;3.40;3.10;;;;;;;;;;5025711;28;20768;-91
2023/04/04 12:59:31;;;;;;;2.90;2.60;;;;;;;;;;5009701;28;20442;-91
2023/04/04 13:01:57;;;;;;;4.17;2.90;;;;;;;;;;5071951;28;20909;-91
2023/04/04 13:04:26;;;;;;;3.50;2.50;;;;;;;;;;5024123;28;20422;-89
2023/04/04 13:06:52;;;;;;;4.23;2.70;;;;;;;;;;5020139;28;20407;-92
2023/04/04 13:09:19;;;;;;;3.60;3.13;;;;;;;;;;5036431;28;20445;-89
2023/04/04 13:12:03;;;;;;;4.17;3.13;;;;;;;;;;5019911;28;20441;-90
2023/04/04 13:14:48;;;;;;;4.43;2.90;;;;;;;;;;5032576;28;20450;-91
2023/04/04 13:17:14;;;;;;;5.43;2.80;;;;;;;;;;5061150;28;20501;-92
2023/04/04 13:19:42;;;;;;;6.10;3.03;;;;;;;;;;5025853;28;20442;-90
2023/04/04 13:22:08;;;;;;;3.93;3.03;;;;;;;;;;5026312;28;20479;-90
2023/04/04 13:24:34;;;;;;;2.70;2.20;;;;;;;;;;5020327;28;20446;-90
2023/04/04 13:27:00;;;;;;;4.80;3.00;;;;;;;;;;5046042;28;20429;-90
2023/04/04 13:29:29;;;;;;;4.40;3.87;;;;;;;;;;5021639;28;20443;-90
2023/04/04 13:31:56;;;;;;;3.33;2.67;;;;;;;;;;5029190;28;20443;-91
2023/04/04 13:34:23;;;;;;;4.20;2.83;;;;;;;;;;5036616;28;20579;-91
2023/04/04 13:36:49;;;;;;;3.30;2.80;;;;;;;;;;5014949;28;21129;-90
2023/04/04 13:39:15;;;;;;;3.43;3.07;;;;;;;;;;5005829;28;20415;-91
2023/04/04 13:41:44;;;;;;;4.23;2.80;;;;;;;;;;5011710;28;20517;-91
2023/04/04 13:44:12;;;;;;;4.20;3.07;;;;;;;;;;5023406;28;20450;-92
2023/04/04 13:46:39;;;;;;;3.63;2.63;;;;;;;;;;5040026;28;20433;-90
2023/04/04 13:49:05;;;;;;;2.47;2.27;;;;;;;;;;5044723;28;20971;-90
2023/04/04 13:51:31;;;;;;;4.00;2.73;;;;;;;;;;5039730;28;20537;-90
2023/04/04 13:53:57;;;;;;;5.60;2.93;;;;;;;;;;5040063;28;20819;-91
2023/04/04 13:56:23;;;;;;;2.50;2.30;;;;;;;;;;5020401;28;20430;-90
2023/04/04 13:58:49;;;;;;;2.83;2.53;;;;;;;;;;5041682;28;20441;-90
2023/04/04 14:01:15;;;;;;;3.27;2.97;;;;;;;;;;5022018;28;20444;-92
2023/04/04 14:03:41;;;;;;;3.03;2.70;;;;;;;;;;5023653;28;20430;-90
2023/04/04 14:06:07;;;;;;;5.80;3.00;;;;;;;;;;5040693;28;20439;-88
2023/04/04 14:08:33;;;;;;;4.10;2.50;;;;;;;;;;5019846;28;20919;-91
2023/04/04 14:10:59;;;;;;;3.10;2.80;;;;;;;;;;5024280;28;20523;-91
2023/04/04 14:13:25;;;;;;;2.57;2.30;;;;;;;;;;5049301;28;21102;-90
2023/04/04 14:15:51;;;;;;;7.00;2.43;;;;;;;;;;5024781;28;20482;-90
2023/04/04 14:18:17;;;;;;;3.10;2.50;;;;;;;;;;5027130;28;20418;-90
2023/04/04 14:20:43;;;;;;;2.97;2.23;;;;;;;;;;5037654;28;20426;-90
2023/04/04 14:23:09;;;;;;;2.97;2.70;;;;;;;;;;5020546;28;20417;-91
2023/04/04 14:25:35;;;;;;;2.90;2.60;;;;;;;;;;5017194;28;20438;-90
2023/04/04 14:28:01;;;;;;;3.20;3.00;;;;;;;;;;5043520;28;20414;-91
2023/04/04 14:30:27;;;;;;;2.37;2.17;;;;;;;;;;5018539;28;20600;-90
2023/04/04 14:32:53;;;;;;;5.43;2.60;;;;;;;;;;5047024;28;20454;-91
2023/04/04 14:35:19;;;;;;;4.77;2.83;;;;;;;;;;5039268;28;20513;-92
2023/04/04 14:37:45;;;;;;;3.97;3.20;;;;;;;;;;5024879;28;20501;-90
2023/04/04 14:40:12;;;;;;;3.53;2.20;;;;;;;;;;5016764;28;20419;-89
2023/04/04 14:42:38;;;;;;;5.17;2.87;;;;;;;;;;5032807;28;20438;-90